SAS105 EDDM-EDDN
Flight info
| Callsign | SAS105 |
|---|---|
| Flight time | 0h 19m |
| Altitude | 20000 |
| Route | INPUD2N/26R INPUD Y102 UPALA UPALA1V |
| Aircraft | B77W/H-SDE1E2E3FGHIJ2J3J4J5M1RWXY/LB1D1 |
Departure
| Time | 2026-05-07 18:05 |
|---|---|
| Airport | Munich Airport (EDDM) |
Arrival
| Time | 2026-05-07 18:24 |
|---|---|
| Airport | Nuremberg Airport (EDDN) |
| Time | Latitude | Longitude | Altitude | Speed | Heading |
|---|---|---|---|---|---|
| 2026-05-07 17:42 | 48.34863 | 11.76952 | 1490 ft | 0 kts | 353° |
| 2026-05-07 17:50 | 48.34852 | 11.76954 | 1475 ft | 3 kts | 352° |
| 2026-05-07 17:51 | 48.34831 | 11.76958 | 1478 ft | 3 kts | 352° |
| 2026-05-07 17:51 | 48.34810 | 11.76963 | 1481 ft | 3 kts | 352° |
| 2026-05-07 17:51 | 48.34789 | 11.76967 | 1475 ft | 3 kts | 359° |
| 2026-05-07 17:51 | 48.34768 | 11.76960 | 1475 ft | 3 kts | 76° |
| 2026-05-07 17:52 | 48.34767 | 11.76947 | 1475 ft | 0 kts | 85° |
| 2026-05-07 17:55 | 48.34767 | 11.76955 | 1475 ft | 3 kts | 84° |
| 2026-05-07 17:55 | 48.34775 | 11.77041 | 1479 ft | 13 kts | 82° |
| 2026-05-07 17:56 | 48.34786 | 11.77177 | 1481 ft | 13 kts | 83° |
| 2026-05-07 17:56 | 48.34796 | 11.77313 | 1476 ft | 13 kts | 88° |
| 2026-05-07 17:56 | 48.34752 | 11.77396 | 1477 ft | 11 kts | 165° |
| 2026-05-07 17:56 | 48.34713 | 11.77405 | 1478 ft | 0 kts | 173° |
| 2026-05-07 17:57 | 48.34675 | 11.77414 | 1477 ft | 13 kts | 166° |
| 2026-05-07 17:57 | 48.34634 | 11.77526 | 1482 ft | 14 kts | 83° |
| 2026-05-07 17:58 | 48.34647 | 11.77681 | 1481 ft | 18 kts | 83° |
| 2026-05-07 17:58 | 48.34666 | 11.77918 | 1485 ft | 24 kts | 83° |
| 2026-05-07 17:58 | 48.34685 | 11.78169 | 1481 ft | 24 kts | 83° |
| 2026-05-07 17:58 | 48.34705 | 11.78418 | 1485 ft | 24 kts | 83° |
| 2026-05-07 17:59 | 48.34724 | 11.78668 | 1479 ft | 24 kts | 83° |
| 2026-05-07 17:59 | 48.34743 | 11.78919 | 1487 ft | 24 kts | 83° |
| 2026-05-07 17:59 | 48.34762 | 11.79169 | 1490 ft | 24 kts | 83° |
| 2026-05-07 17:59 | 48.34782 | 11.79419 | 1477 ft | 24 kts | 83° |
| 2026-05-07 18:00 | 48.34801 | 11.79670 | 1490 ft | 24 kts | 83° |
| 2026-05-07 18:00 | 48.34820 | 11.79920 | 1490 ft | 24 kts | 83° |
| 2026-05-07 18:00 | 48.34840 | 11.80171 | 1477 ft | 24 kts | 84° |
| 2026-05-07 18:00 | 48.34804 | 11.80359 | 1475 ft | 17 kts | 141° |
| 2026-05-07 18:01 | 48.34697 | 11.80406 | 1478 ft | 13 kts | 173° |
| 2026-05-07 18:01 | 48.34678 | 11.80410 | 1482 ft | 0 kts | 173° |
| 2026-05-07 18:01 | 48.34631 | 11.80419 | 1482 ft | 17 kts | 173° |
| 2026-05-07 18:02 | 48.34463 | 11.80311 | 1478 ft | 0 kts | 265° |
| 2026-05-07 18:02 | 48.34463 | 11.80310 | 1478 ft | 0 kts | 265° |
| 2026-05-07 18:03 | 48.34463 | 11.80296 | 1485 ft | 8 kts | 265° |
| 2026-05-07 18:04 | 48.34450 | 11.80056 | 1477 ft | 47 kts | 264° |
| 2026-05-07 18:04 | 48.34382 | 11.79186 | 1490 ft | 119 kts | 263° |
| 2026-05-07 18:04 | 48.34267 | 11.77641 | 1482 ft | 176 kts | 264° |
| 2026-05-07 18:04 | 48.34108 | 11.75651 | 1724 ft | 198 kts | 265° |
| 2026-05-07 18:05 | 48.33950 | 11.73582 | 2409 ft | 200 kts | 265° |
| 2026-05-07 18:05 | 48.33777 | 11.71529 | 3170 ft | 197 kts | 264° |
| 2026-05-07 18:05 | 48.33598 | 11.69470 | 3757 ft | 200 kts | 264° |
| 2026-05-07 18:05 | 48.33614 | 11.67407 | 4294 ft | 200 kts | 289° |
| 2026-05-07 18:06 | 48.34379 | 11.65685 | 4796 ft | 204 kts | 315° |
| 2026-05-07 18:06 | 48.35661 | 11.64548 | 4964 ft | 228 kts | 345° |
| 2026-05-07 18:06 | 48.37276 | 11.64199 | 5255 ft | 246 kts | 351° |
| 2026-05-07 18:06 | 48.39006 | 11.63863 | 5841 ft | 255 kts | 350° |
| 2026-05-07 18:07 | 48.40794 | 11.63495 | 6448 ft | 264 kts | 349° |
| 2026-05-07 18:07 | 48.42645 | 11.63091 | 7076 ft | 273 kts | 349° |
| 2026-05-07 18:07 | 48.44532 | 11.62665 | 7825 ft | 276 kts | 348° |
| 2026-05-07 18:07 | 48.46425 | 11.62133 | 8541 ft | 277 kts | 341° |
| 2026-05-07 18:08 | 48.48299 | 11.61225 | 9213 ft | 284 kts | 336° |
| 2026-05-07 18:08 | 48.50184 | 11.60186 | 9674 ft | 299 kts | 336° |
| 2026-05-07 18:08 | 48.52165 | 11.59080 | 10274 ft | 307 kts | 336° |
| 2026-05-07 18:08 | 48.54193 | 11.57961 | 10980 ft | 313 kts | 336° |
| 2026-05-07 18:09 | 48.56252 | 11.56842 | 11825 ft | 316 kts | 336° |
| 2026-05-07 18:09 | 48.58330 | 11.55725 | 12757 ft | 319 kts | 337° |
| 2026-05-07 18:09 | 48.60430 | 11.54604 | 13668 ft | 323 kts | 337° |
| 2026-05-07 18:09 | 48.62583 | 11.53458 | 14032 ft | 335 kts | 337° |
| 2026-05-07 18:10 | 48.64777 | 11.52296 | 14038 ft | 332 kts | 337° |
| 2026-05-07 18:10 | 48.66952 | 11.51150 | 14055 ft | 330 kts | 337° |
| 2026-05-07 18:10 | 48.69135 | 11.49997 | 14451 ft | 336 kts | 337° |
| 2026-05-07 18:10 | 48.71368 | 11.48815 | 15010 ft | 344 kts | 337° |
| 2026-05-07 18:11 | 48.73656 | 11.47602 | 15571 ft | 352 kts | 338° |
| 2026-05-07 18:11 | 48.75197 | 11.46787 | 16011 ft | 356 kts | 338° |
| 2026-05-07 18:11 | 48.78443 | 11.45608 | 17027 ft | 363 kts | 349° |
| 2026-05-07 18:11 | 48.80976 | 11.45308 | 17819 ft | 367 kts | 353° |
| 2026-05-07 18:12 | 48.83536 | 11.45095 | 18574 ft | 370 kts | 353° |
| 2026-05-07 18:12 | 48.86121 | 11.44887 | 19269 ft | 374 kts | 353° |
| 2026-05-07 18:12 | 48.88739 | 11.44673 | 19910 ft | 381 kts | 353° |
| 2026-05-07 18:12 | 48.91427 | 11.44444 | 20044 ft | 391 kts | 353° |
| 2026-05-07 18:13 | 48.94140 | 11.44208 | 20051 ft | 391 kts | 353° |
| 2026-05-07 18:13 | 48.96847 | 11.43969 | 20048 ft | 387 kts | 354° |
| 2026-05-07 18:13 | 48.99514 | 11.43732 | 19681 ft | 378 kts | 354° |
| 2026-05-07 18:13 | 49.02080 | 11.43503 | 19037 ft | 371 kts | 353° |
| 2026-05-07 18:14 | 49.04650 | 11.43270 | 18218 ft | 369 kts | 353° |
| 2026-05-07 18:14 | 49.07209 | 11.43035 | 17268 ft | 368 kts | 354° |
| 2026-05-07 18:14 | 49.09756 | 11.42801 | 16433 ft | 365 kts | 354° |
| 2026-05-07 18:14 | 49.12276 | 11.42569 | 15650 ft | 361 kts | 354° |
| 2026-05-07 18:15 | 49.14769 | 11.42340 | 14902 ft | 357 kts | 354° |
| 2026-05-07 18:15 | 49.17240 | 11.42113 | 14150 ft | 354 kts | 354° |
| 2026-05-07 18:15 | 49.19672 | 11.42019 | 13263 ft | 345 kts | 358° |
| 2026-05-07 18:15 | 49.22027 | 11.42078 | 12623 ft | 330 kts | 359° |
| 2026-05-07 18:16 | 49.24252 | 11.42164 | 12191 ft | 311 kts | 358° |
| 2026-05-07 18:16 | 49.26364 | 11.42240 | 11699 ft | 297 kts | 358° |
| 2026-05-07 18:16 | 49.28392 | 11.42301 | 11126 ft | 287 kts | 358° |
| 2026-05-07 18:16 | 49.30370 | 11.42353 | 10511 ft | 280 kts | 357° |
| 2026-05-07 18:17 | 49.32299 | 11.42398 | 9899 ft | 274 kts | 357° |
| 2026-05-07 18:17 | 49.34174 | 11.42440 | 9252 ft | 264 kts | 356° |
| 2026-05-07 18:17 | 49.35976 | 11.42479 | 8351 ft | 256 kts | 356° |
| 2026-05-07 18:17 | 49.37734 | 11.42515 | 7535 ft | 248 kts | 356° |
| 2026-05-07 18:18 | 49.39438 | 11.42551 | 6746 ft | 241 kts | 356° |
| 2026-05-07 18:18 | 49.41089 | 11.42584 | 5978 ft | 234 kts | 357° |
| 2026-05-07 18:18 | 49.42679 | 11.42616 | 5207 ft | 225 kts | 357° |
| 2026-05-07 18:18 | 49.44221 | 11.42638 | 4461 ft | 222 kts | 354° |
| 2026-05-07 18:19 | 49.45638 | 11.41925 | 4196 ft | 213 kts | 321° |
| 2026-05-07 18:19 | 49.46433 | 11.40178 | 4001 ft | 192 kts | 287° |
| 2026-05-07 18:19 | 49.46756 | 11.38284 | 3997 ft | 178 kts | 285° |
| 2026-05-07 18:19 | 49.47016 | 11.36437 | 4000 ft | 176 kts | 282° |
| 2026-05-07 18:20 | 49.47225 | 11.34575 | 4003 ft | 178 kts | 281° |
| 2026-05-07 18:20 | 49.47417 | 11.32695 | 4001 ft | 178 kts | 280° |
| 2026-05-07 18:20 | 49.47604 | 11.30799 | 3855 ft | 182 kts | 280° |
| 2026-05-07 18:20 | 49.47793 | 11.28888 | 3607 ft | 179 kts | 280° |
| 2026-05-07 18:21 | 49.47978 | 11.27000 | 3356 ft | 177 kts | 280° |
| 2026-05-07 18:21 | 49.48161 | 11.25149 | 3128 ft | 175 kts | 280° |
| 2026-05-07 18:21 | 49.48343 | 11.23283 | 2880 ft | 176 kts | 281° |
| 2026-05-07 18:21 | 49.48523 | 11.21470 | 2659 ft | 167 kts | 281° |
| 2026-05-07 18:22 | 49.48690 | 11.19764 | 2414 ft | 156 kts | 281° |
| 2026-05-07 18:22 | 49.48795 | 11.18693 | 2283 ft | 151 kts | 281° |
| 2026-05-07 18:22 | 49.49001 | 11.16602 | 2026 ft | 145 kts | 281° |
| 2026-05-07 18:22 | 49.49154 | 11.15067 | 1818 ft | 145 kts | 280° |
| 2026-05-07 18:23 | 49.49306 | 11.13519 | 1588 ft | 146 kts | 281° |
| 2026-05-07 18:23 | 49.49502 | 11.12000 | 1362 ft | 144 kts | 276° |
| 2026-05-07 18:23 | 49.49603 | 11.10461 | 1205 ft | 145 kts | 279° |
| 2026-05-07 18:23 | 49.49758 | 11.08888 | 1056 ft | 154 kts | 279° |
| 2026-05-07 18:24 | 49.49901 | 11.07505 | 1027 ft | 89 kts | 278° |
| 2026-05-07 18:24 | 49.49971 | 11.06780 | 1028 ft | 60 kts | 278° |
| 2026-05-07 18:24 | 49.49946 | 11.06483 | 1025 ft | 13 kts | 208° |
| 2026-05-07 18:24 | 49.49857 | 11.06509 | 1023 ft | 14 kts | 160° |
| 2026-05-07 18:25 | 49.49804 | 11.06574 | 1020 ft | 10 kts | 113° |
| 2026-05-07 18:25 | 49.49788 | 11.06681 | 1021 ft | 10 kts | 98° |
| 2026-05-07 18:25 | 49.49778 | 11.06789 | 1024 ft | 10 kts | 98° |
| 2026-05-07 18:25 | 49.49768 | 11.06897 | 1024 ft | 10 kts | 98° |
| 2026-05-07 18:26 | 49.49758 | 11.07006 | 1023 ft | 10 kts | 98° |
| 2026-05-07 18:26 | 49.49746 | 11.07122 | 1022 ft | 14 kts | 99° |
| 2026-05-07 18:26 | 49.49726 | 11.07324 | 1027 ft | 24 kts | 98° |
| 2026-05-07 18:26 | 49.49701 | 11.07573 | 1026 ft | 24 kts | 98° |
| 2026-05-07 18:27 | 49.49667 | 11.07756 | 1027 ft | 11 kts | 142° |
| 2026-05-07 18:27 | 49.49597 | 11.07774 | 1028 ft | 11 kts | 148° |
| 2026-05-07 18:27 | 49.49575 | 11.07882 | 1029 ft | 11 kts | 98° |
| 2026-05-07 18:27 | 49.49567 | 11.07959 | 1032 ft | 11 kts | 98° |
| 2026-05-07 18:28 | 49.49552 | 11.08111 | 1032 ft | 11 kts | 99° |
| 2026-05-07 18:28 | 49.49540 | 11.08225 | 1031 ft | 11 kts | 98° |
| 2026-05-07 18:28 | 49.49527 | 11.08338 | 1031 ft | 11 kts | 110° |
| 2026-05-07 18:28 | 49.49497 | 11.08444 | 1035 ft | 11 kts | 101° |
| 2026-05-07 18:29 | 49.49508 | 11.08540 | 1037 ft | 8 kts | 32° |
| 2026-05-07 18:29 | 49.49537 | 11.08552 | 1038 ft | 0 kts | 10° |